Time;durP1;ratioP1;P1;durP2;ratioP2;P2;SDS_P1;SDS_P2;PMS_P1;PMS_P2;Temp;Humidity;BMP_temperature;BMP_pressure;BME280_temperature;BME280_humidity;BME280_pressure;Samples;Min_cycle;Max_cycle;Signal;HPM_P1;HPM_P2
2021/10/21 00:00:26;;;;;;;9.40;5.10;;;13.80;99.90;;;;;;5057961;28;20107;-87
2021/10/21 00:02:52;;;;;;;7.13;5.15;;;13.90;99.90;;;;;;5057613;28;20024;-87
2021/10/21 00:05:18;;;;;;;7.55;5.93;;;14.00;99.90;;;;;;5057558;28;20056;-86
2021/10/21 00:07:44;;;;;;;7.60;5.32;;;14.00;99.90;;;;;;5057387;28;20158;-87
2021/10/21 00:10:11;;;;;;;5.90;5.30;;;14.00;99.90;;;;;;5057474;28;20024;-87
2021/10/21 00:12:38;;;;;;;11.68;6.00;;;14.00;99.90;;;;;;5057417;28;20016;-87
2021/10/21 00:15:06;;;;;;;8.85;6.07;;;14.00;99.90;;;;;;5057318;28;20430;-87
2021/10/21 00:17:32;;;;;;;7.05;5.07;;;14.00;99.90;;;;;;5075617;28;20361;-87
2021/10/21 00:19:58;;;;;;;10.65;6.68;;;13.90;99.90;;;;;;5057323;28;20055;-86
2021/10/21 00:22:24;;;;;;;8.32;5.65;;;13.90;99.90;;;;;;5057241;28;20131;-86
2021/10/21 00:24:50;;;;;;;6.05;4.82;;;13.90;99.90;;;;;;5075510;28;20380;-87
2021/10/21 00:27:16;;;;;;;7.15;5.63;;;13.90;99.90;;;;;;5057572;28;20032;-86
2021/10/21 00:29:41;;;;;;;9.18;5.95;;;14.00;99.90;;;;;;5057279;28;20021;-86
2021/10/21 00:32:07;;;;;;;7.28;6.00;;;14.00;99.90;;;;;;5057066;28;20017;-87
2021/10/21 00:34:33;;;;;;;7.35;6.10;;;14.00;99.90;;;;;;5057001;28;20115;-86
2021/10/21 00:36:59;;;;;;;7.82;5.40;;;14.00;99.90;;;;;;5056943;28;20083;-86
2021/10/21 00:39:24;;;;;;;7.25;5.90;;;14.00;99.90;;;;;;5056909;28;20095;-87
2021/10/21 00:41:50;;;;;;;8.70;6.18;;;13.90;99.90;;;;;;5074783;28;20021;-85
2021/10/21 00:44:20;;;;;;;8.63;6.25;;;14.00;99.90;;;;;;5056807;28;20039;-84
2021/10/21 00:46:46;;;;;;;7.43;5.78;;;13.90;99.90;;;;;;5056615;28;20020;-84
2021/10/21 00:49:11;;;;;;;8.38;6.47;;;13.90;99.90;;;;;;5074686;28;20427;-86
2021/10/21 00:51:38;;;;;;;7.63;5.65;;;13.90;99.90;;;;;;5056625;28;20021;-85
2021/10/21 00:54:05;;;;;;;9.55;5.57;;;13.90;99.90;;;;;;5056583;28;20132;-85
2021/10/21 00:56:31;;;;;;;7.45;5.45;;;13.90;99.90;;;;;;5056452;28;20017;-84
2021/10/21 00:58:58;;;;;;;8.27;5.15;;;14.00;99.90;;;;;;5056513;28;20578;-85
2021/10/21 01:01:28;;;;;;;6.28;5.00;;;14.00;99.90;;;;;;5056463;28;20512;-85
2021/10/21 01:03:54;;;;;;;6.28;4.80;;;14.00;99.90;;;;;;5056410;28;20484;-84
2021/10/21 01:06:20;;;;;;;6.05;5.10;;;14.10;99.90;;;;;;5055941;28;20021;-84
2021/10/21 01:08:47;;;;;;;7.90;5.68;;;14.00;99.90;;;;;;5056209;28;20025;-86
2021/10/21 01:11:15;;;;;;;8.43;5.60;;;14.10;99.90;;;;;;5074492;28;20483;-84
2021/10/21 01:13:41;;;;;;;7.90;5.20;;;14.00;99.90;;;;;;5073665;28;20029;-83
2021/10/21 01:16:10;;;;;;;6.28;4.70;;;14.00;99.90;;;;;;5056172;28;20024;-84
2021/10/21 01:18:36;;;;;;;8.77;5.03;;;14.00;99.90;;;;;;5056944;28;20483;-83
2021/10/21 01:21:04;;;;;;;7.20;5.50;;;14.00;99.90;;;;;;5056048;28;20025;-84
2021/10/21 01:23:31;;;;;;;8.98;5.35;;;14.00;99.90;;;;;;5056264;28;20028;-83
2021/10/21 01:25:59;;;;;;;11.07;5.22;;;14.00;99.90;;;;;;5055881;28;20115;-84
2021/10/21 01:28:25;;;;;;;6.13;4.78;;;14.00;99.90;;;;;;5055853;28;20028;-84
2021/10/21 01:30:51;;;;;;;4.93;3.45;;;14.10;99.90;;;;;;5055835;28;20017;-83
2021/10/21 01:33:17;;;;;;;7.45;3.70;;;14.10;99.90;;;;;;5055871;28;20034;-83
2021/10/21 01:35:43;;;;;;;4.20;3.33;;;14.10;99.90;;;;;;5055835;28;20025;-83
2021/10/21 01:38:09;;;;;;;7.63;3.42;;;14.20;99.90;;;;;;5073678;28;20024;-83
2021/10/21 01:40:34;;;;;;;5.60;3.58;;;14.20;99.90;;;;;;5055681;28;20035;-83
2021/10/21 01:43:00;;;;;;;4.80;2.72;;;14.20;99.90;;;;;;5055630;28;20373;-83
2021/10/21 01:45:29;;;;;;;5.63;3.13;;;14.20;99.90;;;;;;5072764;28;20136;-82
2021/10/21 01:47:57;;;;;;;4.40;2.55;;;14.20;99.90;;;;;;5055541;28;20024;-84
2021/10/21 01:50:23;;;;;;;7.25;3.08;;;14.20;99.90;;;;;;5055567;28;20028;-85
2021/10/21 01:52:51;;;;;;;5.50;2.45;;;14.30;99.90;;;;;;5055488;28;20025;-83
2021/10/21 01:55:19;;;;;;;4.15;2.63;;;14.30;99.90;;;;;;5040060;28;20027;-83
2021/10/21 01:57:45;;;;;;;3.75;2.60;;;14.30;99.90;;;;;;5051812;28;20051;-84
2021/10/21 02:00:16;;;;;;;4.65;2.75;;;14.20;99.90;;;;;;5052208;28;20445;-83
2021/10/21 02:02:44;;;;;;;4.40;2.60;;;14.30;99.90;;;;;;5052080;28;20025;-83
2021/10/21 02:05:11;;;;;;;3.25;2.47;;;14.20;99.90;;;;;;5052089;28;20423;-83
2021/10/21 02:07:37;;;;;;;2.97;2.53;;;14.20;99.90;;;;;;5051939;28;20396;-85
2021/10/21 02:10:12;;;;;;;2.53;2.13;;;14.20;99.90;;;;;;5052011;28;20027;-83
2021/10/21 02:12:38;;;;;;;4.40;2.53;;;14.20;99.90;;;;;;5053471;28;20036;-84
2021/10/21 02:15:05;;;;;;;3.60;2.75;;;14.20;99.90;;;;;;5053181;28;20017;-85
2021/10/21 02:17:30;;;;;;;4.93;2.60;;;14.20;99.90;;;;;;5051775;28;20029;-84
2021/10/21 02:19:56;;;;;;;3.35;2.50;;;14.20;99.90;;;;;;5052740;28;20385;-85
2021/10/21 02:22:22;;;;;;;2.75;2.05;;;14.20;99.90;;;;;;5051925;28;20025;-83
2021/10/21 02:24:50;;;;;;;3.58;2.05;;;14.30;99.90;;;;;;5051968;28;20515;-83
2021/10/21 02:27:16;;;;;;;2.90;1.92;;;14.40;99.90;;;;;;5051753;28;20021;-83
2021/10/21 02:29:42;;;;;;;5.07;1.70;;;14.40;99.90;;;;;;5051872;28;20048;-84
2021/10/21 02:32:11;;;;;;;4.03;2.20;;;14.40;99.90;;;;;;5051859;28;20067;-82
2021/10/21 02:34:38;;;;;;;3.20;1.80;;;14.50;99.90;;;;;;5051868;28;20027;-85
2021/10/21 02:37:03;;;;;;;2.90;1.73;;;14.50;99.90;;;;;;5051865;28;20034;-84
2021/10/21 02:39:30;;;;;;;2.05;1.48;;;14.50;99.90;;;;;;5053191;28;20029;-86
2021/10/21 02:41:56;;;;;;;1.60;1.50;;;14.70;99.90;;;;;;5052109;28;20028;-85
2021/10/21 02:44:23;;;;;;;3.05;1.77;;;14.80;99.90;;;;;;5052969;28;20025;-85
2021/10/21 02:46:49;;;;;;;2.38;1.73;;;14.80;99.90;;;;;;5051598;28;20090;-84
2021/10/21 02:49:15;;;;;;;2.60;1.40;;;14.70;99.90;;;;;;5051644;28;20025;-85
2021/10/21 02:51:41;;;;;;;2.17;1.40;;;14.80;99.90;;;;;;5051609;28;20060;-84
2021/10/21 02:54:07;;;;;;;3.47;1.33;;;14.80;99.90;;;;;;5051632;28;20017;-83
2021/10/21 02:56:33;;;;;;;2.72;1.38;;;14.80;99.90;;;;;;5051562;28;20021;-82
2021/10/21 02:58:59;;;;;;;4.63;1.55;;;14.90;99.90;;;;;;5066082;28;20056;-82
2021/10/21 03:01:28;;;;;;;2.67;1.42;;;14.80;99.90;;;;;;5072674;28;20032;-83
2021/10/21 03:03:53;;;;;;;3.60;1.60;;;14.60;99.90;;;;;;5054888;28;20089;-86
2021/10/21 03:06:19;;;;;;;3.65;1.40;;;14.50;99.90;;;;;;5054826;28;20033;-82
2021/10/21 03:08:49;;;;;;;4.55;1.52;;;14.40;99.90;;;;;;5072488;28;20025;-84
2021/10/21 03:11:14;;;;;;;3.90;1.67;;;14.40;99.90;;;;;;5054785;28;20021;-84
2021/10/21 03:13:40;;;;;;;4.32;1.67;;;14.40;99.90;;;;;;5072634;28;20100;-84
2021/10/21 03:16:07;;;;;;;3.78;1.27;;;14.30;99.90;;;;;;5054652;28;20017;-84
2021/10/21 03:18:32;;;;;;;2.40;1.30;;;14.30;99.90;;;;;;5054631;28;20511;-83
2021/10/21 03:20:58;;;;;;;2.85;1.40;;;14.30;99.90;;;;;;5072613;28;20064;-84
2021/10/21 03:23:27;;;;;;;3.75;1.30;;;14.20;99.90;;;;;;5054609;28;20024;-84
2021/10/21 03:25:55;;;;;;;1.63;1.25;;;14.30;99.90;;;;;;5038494;28;20055;-84
2021/10/21 03:28:23;;;;;;;3.50;1.60;;;14.20;99.90;;;;;;5072463;28;20028;-84
2021/10/21 03:30:49;;;;;;;3.05;1.20;;;14.10;99.90;;;;;;5074907;28;20074;-84
2021/10/21 03:33:16;;;;;;;5.13;1.00;;;14.10;99.90;;;;;;5058147;28;20426;-83
2021/10/21 03:35:46;;;;;;;2.13;1.00;;;14.10;99.90;;;;;;5076158;28;20020;-83
2021/10/21 03:38:12;;;;;;;2.03;0.98;;;14.10;99.90;;;;;;5058058;28;20035;-83
2021/10/21 03:40:37;;;;;;;3.42;0.90;;;14.10;99.90;;;;;;5076229;28;20104;-82
2021/10/21 03:43:04;;;;;;;2.10;0.82;;;14.00;99.90;;;;;;5059039;28;20059;-83
2021/10/21 03:45:30;;;;;;;1.65;1.10;;;14.00;99.90;;;;;;5075863;28;20028;-83
2021/10/21 03:47:56;;;;;;;2.10;1.08;;;14.00;99.90;;;;;;5057881;28;20031;-83
2021/10/21 03:50:22;;;;;;;2.58;0.98;;;14.10;99.90;;;;;;5076058;28;20071;-83
2021/10/21 03:52:48;;;;;;;2.42;0.90;;;14.10;99.90;;;;;;5057858;28;20088;-82
2021/10/21 03:55:14;;;;;;;2.90;0.90;;;14.10;99.90;;;;;;5057787;28;20161;-83
2021/10/21 03:57:40;;;;;;;2.72;0.90;;;14.10;99.90;;;;;;5057555;28;20091;-82
2021/10/21 04:00:08;;;;;;;1.65;1.08;;;14.10;99.90;;;;;;5057733;28;20028;-84
2021/10/21 04:02:40;;;;;;;3.15;0.95;;;14.00;99.90;;;;;;5057684;28;20403;-82
2021/10/21 04:05:06;;;;;;;3.45;1.00;;;14.10;99.90;;;;;;5057691;28;20067;-85
2021/10/21 04:07:33;;;;;;;4.40;0.88;;;14.10;99.90;;;;;;5057793;28;20032;-82
2021/10/21 04:10:00;;;;;;;1.73;0.98;;;14.10;99.90;;;;;;5057498;28;20021;-83
2021/10/21 04:12:26;;;;;;;3.97;0.80;;;14.00;99.90;;;;;;5075417;28;20025;-82
2021/10/21 04:14:52;;;;;;;3.78;1.00;;;13.90;99.90;;;;;;5057425;28;20032;-85
2021/10/21 04:17:19;;;;;;;2.22;0.70;;;13.80;99.90;;;;;;5057376;28;20048;-83
2021/10/21 04:19:48;;;;;;;3.15;0.80;;;13.70;99.90;;;;;;5057325;28;20123;-83
2021/10/21 04:22:15;;;;;;;3.22;0.93;;;13.60;99.90;;;;;;5057267;28;20024;-82
2021/10/21 04:24:41;;;;;;;2.65;0.80;;;13.60;99.90;;;;;;5057222;28;20035;-83
2021/10/21 04:27:07;;;;;;;1.70;0.70;;;13.50;99.90;;;;;;5057132;28;20020;-84
2021/10/21 04:29:34;;;;;;;3.15;0.60;;;13.50;99.90;;;;;;5057156;28;20028;-83
2021/10/21 04:31:59;;;;;;;3.10;0.70;;;13.50;99.90;;;;;;5057089;28;20075;-84
2021/10/21 04:34:25;;;;;;;2.05;0.90;;;13.40;99.90;;;;;;5057032;28;20024;-81
2021/10/21 04:36:51;;;;;;;5.32;0.63;;;13.30;99.90;;;;;;5057034;28;20024;-82
2021/10/21 04:39:16;;;;;;;3.22;0.70;;;13.30;99.90;;;;;;5074939;28;20016;-82
2021/10/21 04:41:42;;;;;;;5.30;1.30;;;13.20;99.90;;;;;;5056312;28;20111;-82
2021/10/21 04:44:08;;;;;;;2.58;0.77;;;13.20;99.90;;;;;;5074883;28;20532;-82
2021/10/21 04:46:34;;;;;;;4.85;1.00;;;13.20;99.90;;;;;;5040335;28;20048;-86
2021/10/21 04:49:00;;;;;;;4.07;0.88;;;13.10;99.90;;;;;;5074732;28;20476;-83
2021/10/21 04:51:25;;;;;;;6.95;1.10;;;13.00;99.90;;;;;;5056650;28;20021;-82
2021/10/21 04:53:52;;;;;;;6.00;0.70;;;13.00;99.90;;;;;;5056666;28;20044;-82
2021/10/21 04:56:18;;;;;;;2.63;0.65;;;12.90;99.90;;;;;;5074970;28;20414;-81
2021/10/21 04:58:45;;;;;;;10.32;1.27;;;12.80;99.90;;;;;;5074129;28;20045;-81
2021/10/21 05:01:12;;;;;;;6.55;1.15;;;12.80;99.90;;;;;;5056184;28;20025;-82
2021/10/21 05:03:37;;;;;;;3.80;0.90;;;12.80;99.90;;;;;;5056487;28;20507;-82
2021/10/21 05:06:03;;;;;;;3.85;0.73;;;12.70;99.90;;;;;;5056507;28;20052;-82
2021/10/21 05:08:30;;;;;;;9.00;1.30;;;12.60;99.90;;;;;;5039732;28;20028;-81
2021/10/21 05:10:57;;;;;;;5.53;1.33;;;12.50;99.90;;;;;;5056373;28;20017;-81
2021/10/21 05:13:23;;;;;;;5.10;1.10;;;12.50;99.90;;;;;;5056265;28;20021;-82
2021/10/21 05:15:49;;;;;;;7.72;1.30;;;12.60;99.90;;;;;;5074162;28;20025;-81
2021/10/21 05:18:16;;;;;;;7.45;0.95;;;12.60;99.90;;;;;;5074097;28;20024;-81
2021/10/21 05:20:41;;;;;;;6.50;0.95;;;12.50;99.90;;;;;;5056181;28;20052;-82
2021/10/21 05:23:07;;;;;;;6.65;1.08;;;12.50;99.90;;;;;;5073979;28;20099;-81
2021/10/21 05:25:33;;;;;;;9.45;0.98;;;12.50;99.90;;;;;;5056105;28;20373;-81
2021/10/21 05:27:59;;;;;;;7.55;1.30;;;12.50;99.90;;;;;;5055917;28;20024;-81
2021/10/21 05:30:26;;;;;;;13.32;1.33;;;12.50;99.90;;;;;;5055871;28;20032;-81
2021/10/21 05:32:52;;;;;;;6.45;0.95;;;12.40;99.90;;;;;;5055914;28;20107;-81
2021/10/21 05:35:17;;;;;;;4.88;1.10;;;12.40;99.90;;;;;;5055739;28;20051;-80
2021/10/21 05:37:43;;;;;;;16.70;1.67;;;12.40;99.90;;;;;;5055796;28;20024;-84
2021/10/21 05:40:13;;;;;;;5.80;1.20;;;12.40;99.90;;;;;;5055835;28;20020;-80
2021/10/21 05:42:39;;;;;;;9.68;1.30;;;12.50;99.90;;;;;;5055784;28;20028;-82
2021/10/21 05:45:06;;;;;;;7.65;1.30;;;12.40;99.90;;;;;;5055825;28;20552;-81
2021/10/21 05:47:32;;;;;;;8.52;1.50;;;12.50;99.90;;;;;;5055601;28;20047;-81
2021/10/21 05:49:57;;;;;;;7.63;1.38;;;12.40;99.90;;;;;;5055362;28;20495;-81
2021/10/21 05:52:25;;;;;;;6.75;1.50;;;12.40;99.90;;;;;;5055452;28;20024;-81
2021/10/21 05:54:54;;;;;;;13.18;1.52;;;12.40;99.90;;;;;;5055052;28;20383;-82
2021/10/21 05:57:20;;;;;;;10.30;1.40;;;12.30;99.90;;;;;;5055494;28;20468;-81
2021/10/21 05:59:46;;;;;;;6.63;1.45;;;12.40;99.90;;;;;;5032225;28;20039;-81
2021/10/21 06:02:12;;;;;;;10.30;1.20;;;12.40;99.90;;;;;;5033722;28;20108;-82
2021/10/21 06:04:38;;;;;;;12.38;2.38;;;12.40;99.90;;;;;;5032154;28;20457;-83
2021/10/21 06:07:04;;;;;;;12.68;1.70;;;12.40;99.90;;;;;;5032030;28;20099;-81
2021/10/21 06:09:30;;;;;;;6.72;1.27;;;12.40;99.90;;;;;;5032141;28;20025;-82
2021/10/21 06:11:57;;;;;;;8.45;1.50;;;12.40;99.90;;;;;;5032092;28;20503;-82
2021/10/21 06:14:23;;;;;;;9.63;1.42;;;12.50;99.90;;;;;;5032098;28;20022;-82
2021/10/21 06:16:49;;;;;;;4.78;1.13;;;12.50;99.90;;;;;;5032038;28;20072;-80
2021/10/21 06:19:16;;;;;;;8.43;1.50;;;12.50;99.90;;;;;;5031991;28;20053;-82
2021/10/21 06:21:46;;;;;;;8.82;1.38;;;12.50;99.90;;;;;;5031938;28;20485;-81
2021/10/21 06:24:13;;;;;;;8.55;1.67;;;12.50;99.90;;;;;;5031956;28;20546;-80
2021/10/21 06:26:38;;;;;;;8.45;1.55;;;12.50;99.90;;;;;;5033162;28;20048;-82
2021/10/21 06:29:04;;;;;;;9.13;1.25;;;12.50;99.90;;;;;;5031751;28;20026;-81
2021/10/21 06:31:30;;;;;;;8.80;1.20;;;12.50;99.90;;;;;;5031847;28;20491;-81
2021/10/21 06:33:55;;;;;;;13.88;1.55;;;12.60;99.90;;;;;;5031873;28;20496;-82
2021/10/21 06:36:21;;;;;;;12.73;1.88;;;12.60;99.90;;;;;;5031825;28;20017;-81
2021/10/21 06:38:47;;;;;;;7.38;1.10;;;12.50;99.90;;;;;;5033075;28;20083;-82
2021/10/21 06:41:13;;;;;;;8.02;1.35;;;12.60;99.90;;;;;;5031751;28;20037;-83
2021/10/21 06:43:39;;;;;;;9.07;1.20;;;12.50;99.90;;;;;;5031650;28;20370;-83
2021/10/21 06:46:06;;;;;;;5.90;1.13;;;12.50;99.90;;;;;;5033092;28;20065;-81
2021/10/21 06:48:32;;;;;;;9.88;1.73;;;12.70;99.90;;;;;;5033101;28;20386;-87
2021/10/21 06:50:57;;;;;;;6.53;1.50;;;12.70;99.90;;;;;;5031797;28;20017;-83
2021/10/21 06:53:23;;;;;;;6.38;1.08;;;12.70;99.90;;;;;;5031705;28;20024;-83
2021/10/21 06:55:49;;;;;;;8.02;1.17;;;12.70;99.90;;;;;;5031827;28;20032;-82
2021/10/21 06:58:15;;;;;;;10.05;1.40;;;12.80;99.90;;;;;;5039016;28;20068;-81
2021/10/21 07:00:42;;;;;;;12.55;1.40;;;12.90;99.90;;;;;;5051816;28;20029;-85
2021/10/21 07:03:09;;;;;;;7.88;1.50;;;13.10;99.90;;;;;;5051653;28;20033;-85
2021/10/21 07:05:41;;;;;;;5.75;1.25;;;13.00;99.90;;;;;;5053865;28;20089;-85
2021/10/21 07:08:08;;;;;;;7.05;1.35;;;13.00;99.90;;;;;;5055679;28;20033;-86
2021/10/21 07:10:35;;;;;;;7.90;1.52;;;12.90;99.90;;;;;;5055372;28;20074;-87
2021/10/21 07:13:03;;;;;;;11.70;1.60;;;12.80;99.90;;;;;;5038802;28;20036;-87
2021/10/21 07:15:29;;;;;;;8.18;1.30;;;12.90;99.90;;;;;;5055543;28;20079;-84
2021/10/21 07:17:55;;;;;;;9.05;1.30;;;12.80;99.90;;;;;;5055139;28;20029;-88
2021/10/21 07:20:21;;;;;;;9.25;1.30;;;12.90;99.90;;;;;;5055204;28;20106;-86
2021/10/21 07:22:47;;;;;;;4.95;1.25;;;12.90;99.90;;;;;;5055167;28;20025;-85
2021/10/21 07:25:13;;;;;;;8.90;1.20;;;13.00;99.90;;;;;;5055055;28;20548;-85
2021/10/21 07:27:40;;;;;;;4.00;0.90;;;12.90;99.90;;;;;;5054961;28;20033;-85
2021/10/21 07:30:06;;;;;;;6.30;1.30;;;12.90;99.90;;;;;;5055010;28;20025;-85
2021/10/21 07:32:32;;;;;;;4.53;1.13;;;13.00;99.90;;;;;;5056555;28;20349;-86
2021/10/21 07:34:58;;;;;;;6.53;1.02;;;13.00;99.90;;;;;;5054940;28;20025;-83
2021/10/21 07:37:24;;;;;;;4.40;0.93;;;13.00;99.90;;;;;;5055065;28;20027;-87
2021/10/21 07:39:49;;;;;;;4.93;0.75;;;13.00;99.90;;;;;;5054995;28;20504;-85
2021/10/21 07:42:15;;;;;;;5.80;0.90;;;12.90;99.90;;;;;;5054939;28;20096;-83
2021/10/21 07:44:45;;;;;;;3.30;0.60;;;12.80;99.90;;;;;;5055005;28;20075;-87
2021/10/21 07:47:11;;;;;;;7.05;1.35;;;12.80;99.90;;;;;;5054950;28;20029;-88
2021/10/21 07:49:37;;;;;;;4.32;1.15;;;12.80;99.90;;;;;;5054745;28;20132;-87
2021/10/21 07:52:04;;;;;;;5.82;1.10;;;12.80;99.90;;;;;;5054760;28;20131;-85
2021/10/21 07:54:30;;;;;;;6.55;1.15;;;12.80;99.90;;;;;;5054739;28;20022;-86
2021/10/21 07:57:04;;;;;;;8.02;1.20;;;12.70;99.90;;;;;;5054860;28;20108;-86
2021/10/21 07:59:32;;;;;;;4.00;0.63;;;12.80;99.90;;;;;;5054390;28;20056;-86
2021/10/21 08:01:59;;;;;;;2.63;0.70;;;12.70;99.90;;;;;;5054747;28;20086;-85
2021/10/21 08:04:26;;;;;;;6.35;0.70;;;12.70;99.90;;;;;;5054417;28;20028;-86
2021/10/21 08:06:52;;;;;;;6.25;0.82;;;12.80;99.90;;;;;;5055662;28;20031;-87
2021/10/21 08:09:19;;;;;;;3.88;0.65;;;12.80;99.90;;;;;;5037921;28;20540;-85
2021/10/21 08:11:51;;;;;;;2.13;0.63;;;12.90;99.90;;;;;;5054246;28;20112;-85
2021/10/21 08:14:18;;;;;;;4.80;0.52;;;12.90;99.90;;;;;;5054281;28;20021;-86
2021/10/21 08:16:44;;;;;;;3.78;0.88;;;12.80;99.90;;;;;;5053139;28;20107;-84
2021/10/21 08:19:10;;;;;;;1.85;0.32;;;12.80;99.90;;;;;;5054196;28;20396;-85
2021/10/21 08:21:36;;;;;;;3.20;0.70;;;12.80;99.90;;;;;;5054074;28;20032;-82
2021/10/21 08:24:03;;;;;;;5.43;0.70;;;12.80;99.90;;;;;;5054024;28;20396;-85
2021/10/21 08:26:29;;;;;;;4.05;0.50;;;12.90;99.90;;;;;;5055404;28;20025;-87
2021/10/21 08:28:55;;;;;;;1.05;0.40;;;13.10;99.90;;;;;;5055156;28;20431;-84
2021/10/21 08:31:22;;;;;;;4.35;0.60;;;13.20;99.90;;;;;;5055304;28;20052;-90
2021/10/21 08:33:48;;;;;;;4.53;0.75;;;13.20;99.90;;;;;;5054415;28;20460;-86
2021/10/21 08:36:16;;;;;;;9.02;1.10;;;13.40;99.90;;;;;;5053922;28;20028;-85
2021/10/21 08:38:42;;;;;;;4.47;0.65;;;13.50;99.90;;;;;;5055270;28;20103;-88
2021/10/21 08:41:13;;;;;;;4.57;0.63;;;13.20;99.90;;;;;;5053743;28;20106;-86
2021/10/21 08:43:39;;;;;;;6.65;0.70;;;13.10;99.90;;;;;;5053798;28;20397;-86
2021/10/21 08:46:06;;;;;;;2.60;0.40;;;12.80;99.90;;;;;;5055067;28;20024;-90
2021/10/21 08:48:34;;;;;;;3.20;0.50;;;12.50;99.90;;;;;;5053558;28;20072;-88
2021/10/21 08:51:05;;;;;;;5.13;0.60;;;12.40;99.90;;;;;;5053562;28;20027;-88
2021/10/21 08:53:31;;;;;;;4.07;0.70;;;12.30;99.90;;;;;;5053661;28;20103;-86
2021/10/21 08:55:56;;;;;;;3.58;0.80;;;12.20;99.90;;;;;;5054820;28;20544;-87
2021/10/21 08:58:25;;;;;;;4.93;0.65;;;12.10;99.90;;;;;;5054040;28;20056;-87
2021/10/21 09:01:02;;;;;;;6.45;0.60;;;12.10;99.90;;;;;;5055226;28;20393;-88
2021/10/21 09:03:59;;;;;;;4.45;0.65;;;12.10;99.90;;;;;;5056181;28;20082;-88
2021/10/21 09:08:53;;;;;;;2.83;0.63;;;12.00;99.90;;;;;;5054645;28;20389;-89
2021/10/21 09:11:23;;;;;;;4.32;0.40;;;12.10;99.90;;;;;;5053350;28;20070;-87
2021/10/21 09:14:06;;;;;;;4.00;0.55;;;12.20;99.90;;;;;;5053081;28;20024;-86
2021/10/21 09:16:32;;;;;;;2.28;0.60;;;12.20;99.90;;;;;;5053405;28;20028;-88
2021/10/21 09:19:11;;;;;;;3.83;0.63;;;12.30;99.90;;;;;;5037053;28;20128;-86
2021/10/21 09:21:39;;;;;;;2.67;0.60;;;12.10;99.90;;;;;;5053280;28;20110;-88
2021/10/21 09:24:40;;;;;;;1.75;0.50;;;12.20;99.90;;;;;;5053364;28;20086;-88
2021/10/21 09:27:16;;;;;;;3.22;0.60;;;12.50;99.90;;;;;;5042206;28;20492;-88
2021/10/21 09:29:47;;;;;;;6.38;0.45;;;12.90;99.90;;;;;;5052922;28;20021;-88
2021/10/21 09:32:21;;;;;;;2.88;0.40;;;13.30;99.90;;;;;;5052901;28;20060;-90
2021/10/21 09:34:55;;;;;;;0.95;0.30;;;13.20;99.90;;;;;;5052901;28;20545;-86
2021/10/21 09:37:24;;;;;;;1.70;0.30;;;13.30;99.90;;;;;;5053137;28;20021;-86
2021/10/21 09:39:52;;;;;;;1.67;0.30;;;13.90;99.90;;;;;;5052787;28;20489;-88
2021/10/21 09:42:25;;;;;;;2.78;0.40;;;14.20;99.90;;;;;;5053259;28;20052;-89
2021/10/21 09:45:22;;;;;;;0.40;0.17;;;14.50;99.90;;;;;;5053181;28;20082;-90
2021/10/21 09:47:56;;;;;;;1.40;0.30;;;14.40;99.90;;;;;;5052608;28;20116;-87
2021/10/21 09:50:28;;;;;;;1.27;0.28;;;13.90;99.90;;;;;;5052676;28;20108;-87
2021/10/21 09:53:18;;;;;;;1.83;0.38;;;13.20;99.90;;;;;;5052793;28;20046;-90
2021/10/21 09:55:51;;;;;;;1.63;0.30;;;12.70;99.90;;;;;;5052442;28;20017;-90
2021/10/21 09:58:23;;;;;;;0.77;0.30;;;12.60;99.90;;;;;;5052657;28;20385;-92
2021/10/21 10:00:50;;;;;;;0.25;0.20;;;13.10;99.90;;;;;;5054187;28;20538;-89
2021/10/21 10:03:20;;;;;;;1.52;0.30;;;13.30;99.90;;;;;;5052628;28;20079;-88
2021/10/21 10:05:54;;;;;;;1.40;0.32;;;13.70;99.90;;;;;;5053167;28;20125;-89
2021/10/21 10:08:21;;;;;;;2.10;0.30;;;14.20;99.90;;;;;;5052911;28;20033;-90
2021/10/21 10:10:49;;;;;;;1.63;0.60;;;14.40;99.90;;;;;;5053280;28;20410;-90
2021/10/21 10:13:16;;;;;;;1.30;0.30;;;14.50;99.90;;;;;;5053530;28;20100;-90
2021/10/21 10:15:44;;;;;;;0.70;0.38;;;14.60;99.90;;;;;;5052636;28;20017;-91
2021/10/21 10:18:31;;;;;;;0.80;0.30;;;14.70;99.90;;;;;;5052403;28;20496;-91
2021/10/21 10:21:07;;;;;;;1.85;0.25;;;15.10;99.90;;;;;;5052294;28;20025;-90
2021/10/21 10:23:35;;;;;;;1.75;0.38;;;15.30;99.90;;;;;;5052573;28;20442;-92
2021/10/21 10:26:02;;;;;;;4.55;0.55;;;16.00;99.90;;;;;;5052756;28;20125;-89
2021/10/21 10:28:54;;;;;;;2.15;0.32;;;15.90;99.90;;;;;;5052304;28;20031;-88
2021/10/21 10:31:41;;;;;;;3.25;0.30;;;15.90;99.90;;;;;;5051992;28;20413;-87
2021/10/21 10:34:32;;;;;;;2.20;0.35;;;16.10;99.90;;;;;;5052040;28;20021;-88
2021/10/21 10:37:14;;;;;;;2.58;0.40;;;16.10;99.90;;;;;;5052301;28;20441;-90
2021/10/21 10:39:53;;;;;;;5.22;0.70;;;16.80;99.90;;;;;;5053066;28;20028;-91
2021/10/21 10:42:31;;;;;;;3.95;0.80;;;17.00;99.90;;;;;;5057029;28;20025;-91
2021/10/21 10:44:59;;;;;;;0.98;0.40;;;17.70;99.90;;;;;;5056102;28;20036;-89
2021/10/21 10:47:57;;;;;;;4.78;0.40;;;17.60;99.90;;;;;;5056177;28;20029;-89
2021/10/21 10:50:26;;;;;;;2.90;0.50;;;17.50;99.90;;;;;;5056062;28;20036;-93
2021/10/21 10:52:54;;;;;;;1.92;0.40;;;17.70;99.90;;;;;;5056352;28;20021;-90
2021/10/21 10:55:23;;;;;;;2.53;0.50;;;18.00;99.90;;;;;;5056432;28;20025;-89
2021/10/21 10:58:00;;;;;;;2.03;0.50;;;18.00;99.90;;;;;;5061323;28;20052;-90
2021/10/21 11:00:48;;;;;;;5.38;0.50;;;18.40;99.90;;;;;;5059179;28;20032;-87
2021/10/21 11:03:28;;;;;;;1.95;0.50;;;18.40;99.90;;;;;;5077330;28;20169;-87
2021/10/21 11:05:55;;;;;;;2.67;0.52;;;18.20;99.90;;;;;;5059219;28;20036;-88
2021/10/21 11:08:41;;;;;;;3.85;0.73;;;18.60;99.90;;;;;;5059038;28;20025;-88
2021/10/21 11:11:06;;;;;;;4.10;0.55;;;17.90;99.90;;;;;;5059087;28;20396;-89
2021/10/21 11:13:32;;;;;;;4.70;0.77;;;18.00;99.90;;;;;;5060060;28;20024;-90
2021/10/21 11:15:58;;;;;;;2.80;0.70;;;18.80;99.90;;;;;;5076861;28;20499;-91
2021/10/21 11:18:50;;;;;;;5.03;0.52;;;19.20;99.90;;;;;;5058828;28;20025;-89
2021/10/21 11:21:52;;;;;;;5.95;0.80;;;19.60;99.90;;;;;;5058997;28;20518;-88
2021/10/21 11:24:43;;;;;;;1.85;0.60;;;19.60;99.90;;;;;;5058896;28;20028;-87
2021/10/21 11:27:10;;;;;;;3.13;0.77;;;18.80;99.90;;;;;;5058393;28;20537;-85
2021/10/21 11:29:36;;;;;;;3.63;0.57;;;19.40;99.90;;;;;;5058327;28;20031;-85
2021/10/21 11:32:05;;;;;;;3.05;0.90;;;19.40;99.50;;;;;;5076152;28;20027;-87
2021/10/21 11:34:32;;;;;;;2.25;0.60;;;19.70;99.90;;;;;;5076182;28;20049;-86
2021/10/21 11:36:57;;;;;;;1.90;0.60;;;20.20;99.90;;;;;;5076102;28;20024;-85
2021/10/21 11:39:38;;;;;;;4.25;1.10;;;20.20;99.90;;;;;;5058101;28;20028;-85
2021/10/21 11:42:10;;;;;;;4.75;0.70;;;20.20;99.40;;;;;;5058076;28;20081;-86
2021/10/21 11:44:37;;;;;;;2.55;0.60;;;20.10;98.30;;;;;;5076066;28;20029;-86
2021/10/21 11:47:05;;;;;;;4.57;0.77;;;20.30;98.30;;;;;;5057947;28;20027;-85
2021/10/21 11:49:33;;;;;;;1.98;0.52;;;19.80;98.40;;;;;;5058121;28;20479;-85
2021/10/21 11:52:08;;;;;;;6.18;0.90;;;19.00;99.90;;;;;;5075712;28;20024;-84
2021/10/21 11:54:34;;;;;;;4.82;0.80;;;17.70;99.70;;;;;;5057894;28;20017;-84
2021/10/21 11:57:01;;;;;;;7.20;0.77;;;18.30;99.90;;;;;;5057814;28;20020;-86
2021/10/21 11:59:41;;;;;;;4.25;0.80;;;18.80;99.40;;;;;;5057666;28;20127;-85
2021/10/21 12:02:08;;;;;;;3.05;0.70;;;19.50;98.10;;;;;;5057810;28;20016;-85
2021/10/21 12:04:36;;;;;;;3.55;0.68;;;19.00;98.60;;;;;;5057827;28;20094;-84
2021/10/21 12:07:02;;;;;;;2.78;0.70;;;18.70;97.20;;;;;;5057512;28;20433;-86
2021/10/21 12:09:32;;;;;;;4.53;0.88;;;19.30;98.50;;;;;;5057569;28;20017;-85
2021/10/21 12:12:06;;;;;;;3.03;0.80;;;19.80;97.50;;;;;;5058383;28;20024;-85
2021/10/21 12:14:33;;;;;;;4.32;0.90;;;20.60;96.30;;;;;;5058053;28;20021;-86
2021/10/21 12:16:59;;;;;;;2.60;0.65;;;20.80;96.10;;;;;;5057374;28;20084;-86
2021/10/21 12:19:26;;;;;;;2.88;0.73;;;21.30;96.70;;;;;;5057455;28;20078;-84
2021/10/21 12:22:04;;;;;;;2.78;0.63;;;21.60;94.30;;;;;;5057393;28;20052;-86
2021/10/21 12:24:30;;;;;;;4.07;0.82;;;21.60;94.90;;;;;;5057456;28;20025;-85
2021/10/21 12:27:02;;;;;;;2.97;0.70;;;20.50;94.50;;;;;;5057245;28;20111;-86
2021/10/21 12:29:51;;;;;;;2.80;0.80;;;19.40;96.20;;;;;;5057155;28;20035;-85
2021/10/21 12:32:19;;;;;;;2.13;0.57;;;19.70;97.40;;;;;;5075466;28;20048;-85
2021/10/21 12:34:47;;;;;;;3.67;0.70;;;20.50;96.00;;;;;;5057142;28;20031;-87
2021/10/21 12:37:14;;;;;;;2.58;0.73;;;21.40;94.80;;;;;;5057022;28;20070;-86
2021/10/21 12:39:40;;;;;;;6.70;0.90;;;22.20;93.80;;;;;;5057139;28;20032;-86
2021/10/21 12:42:08;;;;;;;3.38;0.65;;;23.00;92.50;;;;;;5056905;28;20043;-87
2021/10/21 12:44:36;;;;;;;3.78;0.70;;;21.90;91.00;;;;;;5057212;28;20066;-86
2021/10/21 12:47:13;;;;;;;3.38;0.70;;;21.40;92.30;;;;;;5074748;28;20426;-84
2021/10/21 12:49:40;;;;;;;3.55;0.85;;;20.70;93.40;;;;;;5056968;28;20020;-85
2021/10/21 12:52:12;;;;;;;2.03;0.60;;;21.30;93.80;;;;;;5057018;28;20142;-86
2021/10/21 12:54:39;;;;;;;2.95;0.60;;;21.80;92.20;;;;;;5056758;28;20468;-85